首页
METAR-TAF:

METAR-TAF

机场 :

大瀑布城, 蒙大拿州, 美国

纬度: 47-28-24N, 经度: 111-22-56W, 海拔: 1120米

当前天气观测

该预报发布于36分钟前的14:53 UTC
风速13节,风向南转西南
温度 13°C
湿度 51%
气压 1018 hPa
能見度: 16.1公里
天空无云

METAR: KGTF 251453Z 20013KT 10SM CLR 13/03 A3006 RMK AO2 SLP172 T01330028 58002 $

时间: 09:29 (15:29 UTC)

预报

该预报发布于4小时和5分钟前的11:24 UTC
预报有效从25日的 12点(UTC)到 26日的 12点(UTC)
风速9节,风向南转西南
能見度: 10公里
天空无云
从 25日的 2000点(UTC)
风速12节,风向西南,有时为20节阵风
能見度: 10公里
少量云层高于7000英尺
多云层高于20000英尺
从 26日的 0100点(UTC)
风速16节,风向西南,有时为25节阵风
能見度: 10公里
多云层高于9000英尺
从 26日的 0400点(UTC)
风速14节,风向西,有时为24节阵风
能見度: 10公里
散云层高于4000英尺
阴天层高于6000英尺
附近有阵雨
几率 30%
从 26日的 04点(UTC)到 26日的 08点(UTC)
多云层高于4000英尺
小阵雨
从 26日的 1000点(UTC)
风速14节,风向西南
能見度: 10公里
少量云层高于4000英尺
多云层高于9000英尺

TAF: KGTF 251124Z 2512/2612 21009KT P6SM SKC FM252000 23012G20KT P6SM FEW070 BKN200 FM260100 23016G25KT P6SM BKN090 FM260400 26014G24KT P6SM VCSH SCT040 OVC060 PROB30 2604/2608 -SHRA BKN040 FM261000 23014KT P6SM FEW040 BKN090

超过4000个机场的气象观测和天气预报(METAR&TAF报告)。

可查询的气象台以黄色和红色小点在地图上表示。

将鼠标移到小点上方,可查看气象台名称。

然后点击查看天气观测和预报。

如需切换地图:点击带黑十字的绿色按钮放大地图;点击带横线的绿色按钮缩小地图;或者点击绿色箭头查看邻近地区的地图。


METAR-TAF: